Time;durP1;ratioP1;P1;durP2;ratioP2;P2;SDS_P1;SDS_P2;PMS_P1;PMS_P2;Temp;Humidity;BMP_temperature;BMP_pressure;BME280_temperature;BME280_humidity;BME280_pressure;Samples;Min_cycle;Max_cycle;Signal;HPM_P1;HPM_P2
2023/11/04 00:01:07;;;;;;;4.78;1.70;;;;;;;;;;6069843;23;20241;-92
2023/11/04 00:04:12;;;;;;;3.63;2.00;;;;;;;;;;6062368;23;20171;-91
2023/11/04 00:07:17;;;;;;;3.75;1.67;;;;;;;;;;6063193;23;20198;-93
2023/11/04 00:10:23;;;;;;;4.90;2.35;;;;;;;;;;6062003;23;20198;-91
2023/11/04 00:13:28;;;;;;;4.45;2.00;;;;;;;;;;6064853;23;20181;-91
2023/11/04 00:16:35;;;;;;;4.82;2.50;;;;;;;;;;6062722;23;20174;-92
2023/11/04 00:19:40;;;;;;;4.57;2.40;;;;;;;;;;6063240;23;20166;-92
2023/11/04 00:22:46;;;;;;;3.40;2.10;;;;;;;;;;6065167;23;20258;-91
2023/11/04 00:25:51;;;;;;;4.38;2.20;;;;;;;;;;6061532;23;20212;-92
2023/11/04 00:28:57;;;;;;;8.20;3.00;;;;;;;;;;6066524;23;20191;-91
2023/11/04 00:32:04;;;;;;;3.95;2.25;;;;;;;;;;6063636;23;20174;-91
2023/11/04 00:35:10;;;;;;;5.63;2.55;;;;;;;;;;6077712;23;20214;-90
2023/11/04 00:38:16;;;;;;;8.32;2.63;;;;;;;;;;6061283;23;20218;-93
2023/11/04 00:41:21;;;;;;;10.20;3.70;;;;;;;;;;6076935;23;20209;-92
2023/11/04 00:44:25;;;;;;;5.05;2.50;;;;;;;;;;6062351;23;20163;-93
2023/11/04 00:47:33;;;;;;;8.93;3.22;;;;;;;;;;6062701;23;20201;-92
2023/11/04 00:50:38;;;;;;;11.63;4.20;;;;;;;;;;6061327;23;20198;-92
2023/11/04 00:53:43;;;;;;;6.43;3.25;;;;;;;;;;6063471;23;20502;-93
2023/11/04 00:56:48;;;;;;;8.43;4.22;;;;;;;;;;6062739;23;20173;-91
2023/11/04 00:59:53;;;;;;;5.75;3.08;;;;;;;;;;6079023;23;20174;-92
2023/11/04 01:03:00;;;;;;;3.95;2.40;;;;;;;;;;6063473;23;20179;-92
2023/11/04 01:06:05;;;;;;;4.57;2.05;;;;;;;;;;6062001;23;20166;-91
2023/11/04 01:09:12;;;;;;;4.88;2.40;;;;;;;;;;6062709;23;20677;-92
2023/11/04 01:12:17;;;;;;;9.63;3.42;;;;;;;;;;6063246;23;20157;-92
2023/11/04 01:15:22;;;;;;;5.72;2.38;;;;;;;;;;6062011;23;20171;-91
2023/11/04 01:18:29;;;;;;;5.80;2.60;;;;;;;;;;6061585;23;20288;-91
2023/11/04 01:21:34;;;;;;;4.32;2.28;;;;;;;;;;6063238;23;20182;-90
2023/11/04 01:24:39;;;;;;;4.43;2.47;;;;;;;;;;6079750;23;20173;-92
2023/11/04 01:27:45;;;;;;;7.53;3.05;;;;;;;;;;6063432;23;20168;-90
2023/11/04 01:30:50;;;;;;;6.53;2.38;;;;;;;;;;6061551;23;20289;-92
2023/11/04 01:33:56;;;;;;;4.95;2.35;;;;;;;;;;6060957;23;20211;-90
2023/11/04 01:37:01;;;;;;;6.05;2.55;;;;;;;;;;6079973;23;20166;-91
2023/11/04 01:40:08;;;;;;;4.55;2.42;;;;;;;;;;6063833;23;20170;-90
2023/11/04 01:43:23;;;;;;;4.63;2.78;;;;;;;;;;6062170;23;20174;-90
2023/11/04 01:46:28;;;;;;;5.75;3.00;;;;;;;;;;6078319;23;20179;-91
2023/11/04 01:49:34;;;;;;;7.45;3.10;;;;;;;;;;6062263;23;20303;-92
2023/11/04 01:52:40;;;;;;;5.65;3.03;;;;;;;;;;6064050;23;20178;-91
2023/11/04 01:55:45;;;;;;;5.55;3.25;;;;;;;;;;6062087;23;20575;-90
2023/11/04 01:58:50;;;;;;;7.70;3.15;;;;;;;;;;6063449;23;20166;-91
2023/11/04 02:01:55;;;;;;;6.32;3.10;;;;;;;;;;6063734;23;20170;-90
2023/11/04 02:05:03;;;;;;;6.72;3.63;;;;;;;;;;6063392;23;20192;-90
2023/11/04 02:08:09;;;;;;;5.55;3.40;;;;;;;;;;6063219;23;20171;-91
2023/11/04 02:11:14;;;;;;;9.57;3.92;;;;;;;;;;6062504;23;20206;-91
2023/11/04 02:14:19;;;;;;;5.70;3.40;;;;;;;;;;6062742;23;20167;-90
2023/11/04 02:17:25;;;;;;;7.63;4.15;;;;;;;;;;6079369;23;20170;-91
2023/11/04 02:20:34;;;;;;;8.45;4.35;;;;;;;;;;6062726;23;20174;-90
2023/11/04 02:23:40;;;;;;;8.52;4.28;;;;;;;;;;6063200;23;20183;-91
2023/11/04 02:26:45;;;;;;;10.18;5.35;;;;;;;;;;6062214;23;20592;-90
2023/11/04 02:29:50;;;;;;;9.93;4.82;;;;;;;;;;6065260;23;20223;-92
2023/11/04 02:32:56;;;;;;;11.63;4.88;;;;;;;;;;6063507;23;20290;-89
2023/11/04 02:36:02;;;;;;;9.05;4.15;;;;;;;;;;6063190;23;20170;-92
2023/11/04 02:39:09;;;;;;;10.63;4.97;;;;;;;;;;6063080;23;20175;-92
2023/11/04 02:42:14;;;;;;;7.30;3.47;;;;;;;;;;6078428;23;20200;-89
2023/11/04 02:45:19;;;;;;;7.63;3.78;;;;;;;;;;6063276;23;20178;-92
2023/11/04 02:48:25;;;;;;;6.22;3.50;;;;;;;;;;6080150;23;20159;-92
2023/11/04 02:51:29;;;;;;;6.25;2.97;;;;;;;;;;6062112;23;20201;-90
2023/11/04 02:54:36;;;;;;;10.63;3.30;;;;;;;;;;6062649;23;20166;-91
2023/11/04 02:57:41;;;;;;;5.97;2.85;;;;;;;;;;6062643;23;20449;-91
2023/11/04 03:00:47;;;;;;;10.50;2.78;;;;;;;;;;6062113;23;20173;-92
2023/11/04 03:03:52;;;;;;;5.88;2.83;;;;;;;;;;6061198;23;20232;-90
2023/11/04 03:06:57;;;;;;;5.72;2.70;;;;;;;;;;6061913;23;20638;-92
2023/11/04 03:10:05;;;;;;;3.33;2.35;;;;;;;;;;6078859;23;20177;-90
2023/11/04 03:13:10;;;;;;;3.70;2.40;;;;;;;;;;6062266;23;20630;-91
2023/11/04 03:16:19;;;;;;;5.65;2.63;;;;;;;;;;6060186;23;20242;-91
2023/11/04 03:19:24;;;;;;;7.75;2.75;;;;;;;;;;6062271;23;20466;-91
2023/11/04 03:22:29;;;;;;;8.00;3.40;;;;;;;;;;6079964;23;20211;-91
2023/11/04 03:25:37;;;;;;;8.03;3.20;;;;;;;;;;6080583;23;20174;-92
2023/11/04 03:28:42;;;;;;;6.03;3.30;;;;;;;;;;6062456;23;20187;-93
2023/11/04 03:31:48;;;;;;;6.15;3.75;;;;;;;;;;6062290;23;20536;-90
2023/11/04 03:34:53;;;;;;;5.50;3.10;;;;;;;;;;6061071;23;20228;-91
2023/11/04 03:37:58;;;;;;;4.97;3.20;;;;;;;;;;6063012;23;20183;-91
2023/11/04 03:41:05;;;;;;;8.53;3.00;;;;;;;;;;6061864;23;20179;-92
2023/11/04 03:44:12;;;;;;;6.77;2.97;;;;;;;;;;6062508;23;20238;-90
2023/11/04 03:47:17;;;;;;;4.10;2.57;;;;;;;;;;6065060;23;20167;-92
2023/11/04 03:50:22;;;;;;;5.43;2.57;;;;;;;;;;6063432;23;20630;-91
2023/11/04 03:53:28;;;;;;;7.00;2.90;;;;;;;;;;6062447;23;20318;-92
2023/11/04 03:56:34;;;;;;;6.70;2.63;;;;;;;;;;6062665;23;20173;-90
2023/11/04 03:59:39;;;;;;;3.73;2.30;;;;;;;;;;6079392;23;20215;-93
2023/11/04 04:02:44;;;;;;;5.60;2.90;;;;;;;;;;6063990;23;20150;-92
2023/11/04 04:05:50;;;;;;;3.50;2.47;;;;;;;;;;6066015;23;20171;-89
2023/11/04 04:08:58;;;;;;;7.40;3.10;;;;;;;;;;6083148;23;20175;-91
2023/11/04 04:12:05;;;;;;;6.77;3.50;;;;;;;;;;6066186;23;20198;-91
2023/11/04 04:15:10;;;;;;;5.40;2.50;;;;;;;;;;6060771;23;20215;-91
2023/11/04 04:18:15;;;;;;;3.03;2.17;;;;;;;;;;6062076;23;20223;-93
2023/11/04 04:21:20;;;;;;;3.03;2.00;;;;;;;;;;6066261;23;20201;-92
2023/11/04 04:24:25;;;;;;;5.90;2.40;;;;;;;;;;6064923;23;20203;-92
2023/11/04 04:27:31;;;;;;;5.70;2.80;;;;;;;;;;6064972;23;20184;-90
2023/11/04 04:30:36;;;;;;;7.80;2.83;;;;;;;;;;6062892;23;20175;-88
2023/11/04 04:33:42;;;;;;;5.53;2.70;;;;;;;;;;6062585;23;20226;-92
2023/11/04 04:36:47;;;;;;;4.87;3.00;;;;;;;;;;6062533;23;20170;-89
2023/11/04 04:39:52;;;;;;;6.43;2.20;;;;;;;;;;6065365;23;20167;-91
2023/11/04 04:42:59;;;;;;;3.77;2.50;;;;;;;;;;6061685;23;20174;-93
2023/11/04 04:46:04;;;;;;;4.23;2.60;;;;;;;;;;6081665;23;20158;-92
2023/11/04 04:49:10;;;;;;;6.53;2.67;;;;;;;;;;6063242;23;20178;-91
2023/11/04 04:52:16;;;;;;;5.63;2.97;;;;;;;;;;6064488;23;20202;-92
2023/11/04 04:55:22;;;;;;;5.07;3.20;;;;;;;;;;6082648;23;20615;-93
2023/11/04 04:58:29;;;;;;;10.10;3.83;;;;;;;;;;6078858;23;20166;-95
2023/11/04 05:01:35;;;;;;;11.07;4.03;;;;;;;;;;6066070;23;20166;-89
2023/11/04 05:04:40;;;;;;;16.10;4.10;;;;;;;;;;6065109;23;20246;-91
2023/11/04 05:07:46;;;;;;;17.13;4.20;;;;;;;;;;6064759;23;20154;-92
2023/11/04 05:10:51;;;;;;;25.43;4.27;;;;;;;;;;6083550;23;20186;-92
2023/11/04 05:13:57;;;;;;;25.43;4.97;;;;;;;;;;6066585;23;20171;-92
2023/11/04 05:17:05;;;;;;;36.77;4.90;;;;;;;;;;6065073;23;20198;-92
2023/11/04 05:20:10;;;;;;;22.60;5.17;;;;;;;;;;6084705;23;20191;-92
2023/11/04 05:23:16;;;;;;;35.00;5.37;;;;;;;;;;6068031;23;20180;-91
2023/11/04 05:26:22;;;;;;;18.90;4.60;;;;;;;;;;6070252;23;20173;-92
2023/11/04 05:29:31;;;;;;;78.77;6.47;;;;;;;;;;6062141;23;20540;-91
2023/11/04 05:32:36;;;;;;;57.53;6.20;;;;;;;;;;6062812;23;20198;-91
2023/11/04 05:35:42;;;;;;;54.87;6.67;;;;;;;;;;6063978;23;20146;-91
2023/11/04 05:38:47;;;;;;;45.70;5.37;;;;;;;;;;6080386;23;20175;-92
2023/11/04 05:41:52;;;;;;;45.10;4.97;;;;;;;;;;6083594;23;20499;-92
2023/11/04 05:44:58;;;;;;;30.37;4.70;;;;;;;;;;6080528;23;20159;-91
2023/11/04 05:48:04;;;;;;;33.17;3.77;;;;;;;;;;6063386;23;20171;-92
2023/11/04 05:51:09;;;;;;;97.80;7.27;;;;;;;;;;6065213;23;20167;-91
2023/11/04 05:54:14;;;;;;;52.87;5.20;;;;;;;;;;6080156;23;20739;-92
2023/11/04 05:57:19;;;;;;;50.80;5.50;;;;;;;;;;6061927;23;20610;-90
2023/11/04 06:00:26;;;;;;;25.13;4.60;;;;;;;;;;6063012;23;20180;-90
2023/11/04 06:03:39;;;;;;;59.60;6.30;;;;;;;;;;6064961;23;20242;-91
2023/11/04 06:06:45;;;;;;;34.47;5.70;;;;;;;;;;6063385;23;20158;-89
2023/11/04 06:09:50;;;;;;;32.47;6.37;;;;;;;;;;6064030;23;20196;-91
2023/11/04 06:12:55;;;;;;;41.40;5.33;;;;;;;;;;6066518;23;20527;-90
2023/11/04 06:16:02;;;;;;;52.60;6.50;;;;;;;;;;6064097;23;20174;-90
2023/11/04 06:19:07;;;;;;;63.23;5.97;;;;;;;;;;6065348;23;20170;-91
2023/11/04 06:22:13;;;;;;;31.20;4.83;;;;;;;;;;6079481;23;20529;-90
2023/11/04 06:25:17;;;;;;;50.00;6.13;;;;;;;;;;6063256;23;20172;-91
2023/11/04 06:28:22;;;;;;;67.87;6.80;;;;;;;;;;6062694;23;20194;-90
2023/11/04 06:31:30;;;;;;;53.13;6.03;;;;;;;;;;6061425;23;20178;-90
2023/11/04 06:34:36;;;;;;;59.03;6.00;;;;;;;;;;6064671;23;20499;-92
2023/11/04 06:37:41;;;;;;;52.60;6.90;;;;;;;;;;6064844;23;20175;-93
2023/11/04 06:40:47;;;;;;;27.37;5.50;;;;;;;;;;6061662;23;20175;-91
2023/11/04 06:43:52;;;;;;;15.53;5.30;;;;;;;;;;6079249;23;20203;-92
2023/11/04 06:46:58;;;;;;;16.23;5.07;;;;;;;;;;6063354;23;20166;-90
2023/11/04 06:50:04;;;;;;;12.67;5.00;;;;;;;;;;6063946;23;20167;-91
2023/11/04 06:53:09;;;;;;;12.27;4.63;;;;;;;;;;6061595;23;20534;-90
2023/11/04 06:56:14;;;;;;;8.20;4.70;;;;;;;;;;6061499;23;20212;-89
2023/11/04 06:59:19;;;;;;;11.10;4.50;;;;;;;;;;6061198;23;20178;-91
2023/11/04 07:02:26;;;;;;;7.80;4.17;;;;;;;;;;6080799;23;20514;-93
2023/11/04 07:05:31;;;;;;;8.17;4.23;;;;;;;;;;6062478;23;20252;-92
2023/11/04 07:08:36;;;;;;;11.33;4.00;;;;;;;;;;6065828;23;20295;-91
2023/11/04 07:11:44;;;;;;;9.43;4.30;;;;;;;;;;6062919;23;20153;-91
2023/11/04 07:14:49;;;;;;;5.10;3.30;;;;;;;;;;6063735;23;20225;-91
2023/11/04 07:17:56;;;;;;;5.80;3.30;;;;;;;;;;6063092;23;20207;-94
2023/11/04 07:21:04;;;;;;;5.30;3.10;;;;;;;;;;6062738;23;20193;-91
2023/11/04 08:14:02;;;;;;;84.40;39.58;;;;;;;;;;5975229;23;20212;-90
2023/11/04 08:17:08;;;;;;;8.17;5.20;;;;;;;;;;6043085;23;20166;-91
2023/11/04 08:20:15;;;;;;;4.83;2.97;;;;;;;;;;6055711;23;20175;-90
2023/11/04 08:23:21;;;;;;;8.43;3.87;;;;;;;;;;6056120;23;20251;-91
2023/11/04 08:26:26;;;;;;;7.80;4.10;;;;;;;;;;6054633;23;20223;-92
2023/11/04 08:29:33;;;;;;;8.27;3.60;;;;;;;;;;6054162;23;20277;-92
2023/11/04 08:35:57;;;;;;;6.60;4.10;;;;;;;;;;6055113;23;20200;-89
2023/11/04 08:42:24;;;;;;;5.00;3.13;;;;;;;;;;6057979;23;20219;-91
2023/11/04 08:45:32;;;;;;;8.30;3.50;;;;;;;;;;6056656;23;20150;-96
2023/11/04 09:53:16;;;;;;;7.88;2.53;;;;;;;;;;6023165;22;4563795;-92
2023/11/04 09:56:22;;;;;;;6.13;2.55;;;;;;;;;;6223444;23;20506;-92
2023/11/04 09:59:29;;;;;;;4.45;2.20;;;;;;;;;;6222238;22;20159;-93
2023/11/04 10:02:36;;;;;;;3.97;2.30;;;;;;;;;;6225111;23;20235;-92
2023/11/04 10:05:42;;;;;;;4.53;2.10;;;;;;;;;;6223617;23;20215;-90
2023/11/04 10:08:50;;;;;;;5.00;2.40;;;;;;;;;;6226177;22;20197;-92
2023/11/04 10:11:58;;;;;;;4.13;2.50;;;;;;;;;;6227022;23;20191;-91
2023/11/04 10:21:45;;;;;;;7.35;3.40;;;;;;;;;;6240365;22;20167;-90
2023/11/04 10:28:26;;;;;;;6.10;2.97;;;;;;;;;;6234011;22;20269;-92
2023/11/04 10:31:32;;;;;;;7.45;3.70;;;;;;;;;;6216735;22;20236;-91
2023/11/04 10:34:40;;;;;;;6.45;3.10;;;;;;;;;;6216592;23;20176;-92
2023/11/04 10:37:48;;;;;;;7.03;3.25;;;;;;;;;;6219068;23;20251;-92
2023/11/04 10:40:53;;;;;;;6.43;3.25;;;;;;;;;;6216704;22;20167;-90
2023/11/04 10:44:02;;;;;;;4.38;2.70;;;;;;;;;;6214083;23;20167;-93
2023/11/04 10:47:14;;;;;;;4.70;2.60;;;;;;;;;;6215775;22;20650;-93
2023/11/04 10:50:23;;;;;;;3.88;2.47;;;;;;;;;;6218166;23;20210;-93
2023/11/04 10:53:41;;;;;;;4.40;2.47;;;;;;;;;;6216393;23;20260;-91
2023/11/04 10:56:58;;;;;;;5.30;2.20;;;;;;;;;;6215516;23;20151;-91
2023/11/04 11:00:10;;;;;;;4.53;2.38;;;;;;;;;;6214955;23;20175;-92
2023/11/04 11:03:16;;;;;;;3.42;1.70;;;;;;;;;;6218198;22;20293;-94
2023/11/04 11:06:21;;;;;;;4.45;2.30;;;;;;;;;;6217669;23;20167;-90
2023/11/04 11:09:27;;;;;;;3.20;2.00;;;;;;;;;;6214615;23;20195;-91
2023/11/04 11:12:34;;;;;;;3.08;1.73;;;;;;;;;;6214653;22;20147;-93
2023/11/04 11:15:43;;;;;;;4.85;1.83;;;;;;;;;;6214106;23;20176;-90
2023/11/04 11:18:49;;;;;;;3.88;2.00;;;;;;;;;;6215532;22;20492;-92
2023/11/04 11:21:55;;;;;;;3.20;1.60;;;;;;;;;;6213811;22;20214;-93
2023/11/04 11:25:01;;;;;;;4.18;2.03;;;;;;;;;;6215211;23;20175;-92
2023/11/04 11:28:16;;;;;;;4.03;1.67;;;;;;;;;;6215881;22;20207;-92
2023/11/04 11:31:29;;;;;;;2.65;1.50;;;;;;;;;;6215285;22;20540;-93
2023/11/04 11:34:43;;;;;;;6.43;1.52;;;;;;;;;;6218427;23;20222;-91
2023/11/04 11:37:50;;;;;;;5.28;2.65;;;;;;;;;;6214296;23;20174;-90
2023/11/04 11:40:56;;;;;;;5.85;1.80;;;;;;;;;;6214459;23;20182;-94
2023/11/04 11:44:02;;;;;;;3.03;1.60;;;;;;;;;;6216079;23;20167;-92
2023/11/04 11:47:14;;;;;;;4.68;1.80;;;;;;;;;;6215950;23;20242;-93
2023/11/04 11:50:20;;;;;;;5.78;2.38;;;;;;;;;;6215769;23;20212;-93
2023/11/04 11:53:27;;;;;;;4.95;1.80;;;;;;;;;;6216298;22;20210;-92
2023/11/04 11:56:32;;;;;;;2.83;1.40;;;;;;;;;;6216474;22;20243;-93
2023/11/04 11:59:38;;;;;;;11.95;1.98;;;;;;;;;;6216585;23;20175;-93
2023/11/04 12:02:47;;;;;;;5.03;1.90;;;;;;;;;;6199984;23;20526;-92
2023/11/04 12:05:53;;;;;;;5.90;1.90;;;;;;;;;;6215280;23;20191;-91
2023/11/04 12:12:18;;;;;;;3.50;1.70;;;;;;;;;;6215606;23;20221;-90
2023/11/04 12:15:24;;;;;;;7.50;1.50;;;;;;;;;;6216217;23;20168;-92
2023/11/04 13:37:43;;;;;;;5.90;1.50;;;;;;;;;;6185822;22;20679;-93
2023/11/04 13:40:50;;;;;;;4.80;1.23;;;;;;;;;;6216028;22;20155;-92
2023/11/04 13:43:56;;;;;;;4.50;2.70;;;;;;;;;;6216394;22;20288;-92
2023/11/04 13:47:01;;;;;;;73.22;28.50;;;;;;;;;;6213344;23;20167;-93
2023/11/04 13:50:07;;;;;;;8.43;3.38;;;;;;;;;;6212829;23;20226;-92
2023/11/04 13:56:49;;;;;;;3.42;1.25;;;;;;;;;;6233790;22;20239;-92
2023/11/04 13:59:59;;;;;;;4.60;1.15;;;;;;;;;;6216263;22;20155;-90
2023/11/04 20:02:43;;;;;;;20.27;8.00;;;;;;;;;;6191655;22;20195;31
2023/11/04 20:05:50;;;;;;;9.18;4.20;;;;;;;;;;6117304;23;20235;-92
2023/11/04 20:08:55;;;;;;;12.55;4.30;;;;;;;;;;6156416;23;20208;-92
2023/11/04 20:12:03;;;;;;;10.38;4.55;;;;;;;;;;6157961;23;20225;-91
2023/11/04 20:15:08;;;;;;;10.45;5.32;;;;;;;;;;6157137;23;20213;-91
2023/11/04 20:18:14;;;;;;;5.57;3.08;;;;;;;;;;6156980;23;20185;-90
2023/11/04 20:21:22;;;;;;;6.00;2.97;;;;;;;;;;6157427;23;20168;-92
2023/11/04 20:24:36;;;;;;;7.82;3.33;;;;;;;;;;6157204;23;20246;-90
2023/11/04 20:27:42;;;;;;;4.45;2.40;;;;;;;;;;6159783;23;20172;-92
2023/11/04 20:30:49;;;;;;;7.60;2.38;;;;;;;;;;6159870;23;20220;-91
2023/11/04 20:33:56;;;;;;;7.40;2.70;;;;;;;;;;6159025;23;20185;-90
2023/11/04 20:37:02;;;;;;;9.00;2.92;;;;;;;;;;6135503;23;20168;-91
2023/11/04 20:40:09;;;;;;;9.57;4.13;;;;;;;;;;6135673;23;20157;-92
2023/11/04 20:43:14;;;;;;;15.95;6.13;;;;;;;;;;6154666;23;20491;-92
2023/11/04 20:46:19;;;;;;;19.50;8.13;;;;;;;;;;6154979;23;20259;-90
2023/11/04 20:49:24;;;;;;;9.20;4.22;;;;;;;;;;6152754;23;20245;-90
2023/11/04 20:52:32;;;;;;;11.07;4.68;;;;;;;;;;6152724;23;20177;-92
2023/11/04 20:55:40;;;;;;;4.30;2.35;;;;;;;;;;6153606;23;20153;-92
2023/11/04 20:58:45;;;;;;;9.30;4.28;;;;;;;;;;6153529;23;20517;-92
2023/11/04 21:01:50;;;;;;;6.72;3.20;;;;;;;;;;6153970;23;20208;-92
2023/11/04 21:04:55;;;;;;;5.95;2.40;;;;;;;;;;6166813;23;20270;-91
2023/11/04 21:08:02;;;;;;;4.50;2.35;;;;;;;;;;6170135;23;20172;-91
2023/11/04 21:11:08;;;;;;;4.90;2.10;;;;;;;;;;6172000;23;20152;-90
2023/11/04 21:14:13;;;;;;;6.05;2.58;;;;;;;;;;6170598;23;20175;-91
2023/11/04 21:17:18;;;;;;;6.20;2.83;;;;;;;;;;6173114;23;20287;-91
2023/11/04 21:20:24;;;;;;;6.28;2.42;;;;;;;;;;6171261;23;20298;-92
2023/11/04 21:23:31;;;;;;;5.60;3.00;;;;;;;;;;6170261;23;20169;-92
2023/11/04 21:26:40;;;;;;;6.25;2.67;;;;;;;;;;6171533;23;20176;-90
2023/11/04 21:29:47;;;;;;;9.77;4.57;;;;;;;;;;6172293;23;20192;-91
2023/11/04 21:32:53;;;;;;;4.82;2.45;;;;;;;;;;6170680;23;20169;-91
2023/11/04 21:35:58;;;;;;;5.38;2.63;;;;;;;;;;6171956;23;20172;-91
2023/11/04 21:39:05;;;;;;;3.53;1.88;;;;;;;;;;6171642;23;20172;-91
2023/11/04 21:42:11;;;;;;;28.33;11.57;;;;;;;;;;6171178;23;20156;-91
2023/11/04 21:45:16;;;;;;;4.82;2.00;;;;;;;;;;6190385;23;20164;-92
2023/11/04 21:48:22;;;;;;;3.90;2.08;;;;;;;;;;6172811;23;20216;-91
2023/11/04 21:51:28;;;;;;;5.88;1.77;;;;;;;;;;6172300;23;20201;-91
2023/11/04 21:54:37;;;;;;;3.30;1.60;;;;;;;;;;6173211;23;20172;-89
2023/11/04 21:57:42;;;;;;;4.63;2.22;;;;;;;;;;6172358;23;20193;-91
2023/11/04 22:00:48;;;;;;;3.85;2.20;;;;;;;;;;6173243;23;20173;-91
2023/11/04 22:03:53;;;;;;;6.70;3.00;;;;;;;;;;6171470;23;20700;-90
2023/11/04 22:06:58;;;;;;;6.43;2.55;;;;;;;;;;6171099;23;20181;-91
2023/11/04 22:10:06;;;;;;;6.30;2.88;;;;;;;;;;6171963;23;20269;-88
2023/11/04 22:13:22;;;;;;;3.63;1.95;;;;;;;;;;6173219;23;20168;-90
2023/11/04 22:16:28;;;;;;;5.53;1.80;;;;;;;;;;6176345;23;20218;-92
2023/11/04 22:19:32;;;;;;;5.20;2.45;;;;;;;;;;6173425;23;20168;-92
2023/11/04 22:22:39;;;;;;;6.70;2.35;;;;;;;;;;6174725;23;20168;-91
2023/11/04 22:25:47;;;;;;;5.25;1.83;;;;;;;;;;6173934;23;20217;-93
2023/11/04 22:28:52;;;;;;;4.13;1.77;;;;;;;;;;6173916;23;20192;-90
2023/11/04 22:31:58;;;;;;;6.68;2.20;;;;;;;;;;6173945;23;20177;-90
2023/11/04 22:35:04;;;;;;;5.78;2.08;;;;;;;;;;6173472;23;20169;-90
2023/11/04 22:38:09;;;;;;;4.68;1.73;;;;;;;;;;6173572;23;20171;-90
2023/11/04 22:41:17;;;;;;;5.90;2.10;;;;;;;;;;6173479;23;20169;-91
2023/11/04 22:44:22;;;;;;;4.15;1.80;;;;;;;;;;6173908;23;20173;-89
2023/11/04 22:47:27;;;;;;;3.20;1.70;;;;;;;;;;6173318;23;20168;-90
2023/11/04 22:50:33;;;;;;;5.68;1.20;;;;;;;;;;6171902;23;20197;-91
2023/11/04 22:53:38;;;;;;;4.50;1.52;;;;;;;;;;6174052;23;20156;-90
2023/11/04 22:56:45;;;;;;;2.35;1.23;;;;;;;;;;6174308;23;20196;-91
2023/11/04 22:59:51;;;;;;;2.58;1.35;;;;;;;;;;6173752;23;20176;-90
2023/11/04 23:02:57;;;;;;;6.78;2.80;;;;;;;;;;6172811;23;20486;-90
2023/11/04 23:06:03;;;;;;;7.55;2.95;;;;;;;;;;6155347;23;20248;-91
2023/11/04 23:09:09;;;;;;;9.32;3.28;;;;;;;;;;6154185;23;20314;-90
2023/11/04 23:12:17;;;;;;;6.47;2.45;;;;;;;;;;6155555;23;20168;-89
2023/11/04 23:15:24;;;;;;;4.35;2.05;;;;;;;;;;6154937;23;20169;-91
2023/11/04 23:18:29;;;;;;;9.32;3.00;;;;;;;;;;6155798;23;20171;-91
2023/11/04 23:21:36;;;;;;;4.18;1.90;;;;;;;;;;6155234;23;20153;-92
2023/11/04 23:24:41;;;;;;;3.97;1.70;;;;;;;;;;6154726;23;20193;-92
2023/11/04 23:27:48;;;;;;;3.65;1.70;;;;;;;;;;6156602;23;20169;-92
2023/11/04 23:30:54;;;;;;;4.05;2.03;;;;;;;;;;6155890;23;20247;-90
2023/11/04 23:33:59;;;;;;;2.67;1.50;;;;;;;;;;6156579;23;20156;-89
2023/11/04 23:37:05;;;;;;;3.95;1.50;;;;;;;;;;6156184;23;20172;-92
2023/11/04 23:40:10;;;;;;;5.38;2.38;;;;;;;;;;6155827;23;20173;-92
2023/11/04 23:43:17;;;;;;;5.65;2.53;;;;;;;;;;6157631;23;20165;-91
2023/11/04 23:46:23;;;;;;;2.70;1.50;;;;;;;;;;6156166;23;20211;-91
2023/11/04 23:49:28;;;;;;;2.95;1.45;;;;;;;;;;6153797;23;20249;-91
2023/11/04 23:52:33;;;;;;;3.10;1.40;;;;;;;;;;6153109;23;20169;-91
2023/11/04 23:55:38;;;;;;;2.30;1.40;;;;;;;;;;6154778;23;20164;-92
2023/11/04 23:58:47;;;;;;;4.28;1.83;;;;;;;;;;6154181;23;20193;-91
